createdAt,value
2022-10-30T00:00:48.942Z,10.45
2022-10-30T00:03:17.018Z,9.02
2022-10-30T00:05:45.271Z,8.05
2022-10-30T00:08:13.851Z,11.13
2022-10-30T00:10:41.252Z,6.72
2022-10-30T00:13:08.779Z,10.13
2022-10-30T00:15:35.455Z,8.57
2022-10-30T00:18:02.710Z,12.05
2022-10-30T00:20:29.534Z,11.13
2022-10-30T00:22:56.527Z,11.32
2022-10-30T00:25:23.905Z,7.13
2022-10-30T00:27:50.610Z,8.25
2022-10-30T00:30:18.934Z,12.65
2022-10-30T00:32:45.763Z,9.88
2022-10-30T00:35:12.651Z,10.40
2022-10-30T00:37:39.494Z,9.63
2022-10-30T00:40:06.966Z,10.25
2022-10-30T00:42:33.807Z,8.85
2022-10-30T00:45:00.703Z,10.45
2022-10-30T00:47:38.079Z,12.32
2022-10-30T00:50:07.853Z,13.40
2022-10-30T00:52:39.222Z,9.65
2022-10-30T00:55:19.800Z,8.50
2022-10-30T00:57:48.241Z,7.97
2022-10-30T01:00:15.976Z,6.38
2022-10-30T01:02:44.024Z,9.07
2022-10-30T01:05:15.732Z,7.82
2022-10-30T01:07:42.568Z,9.88
2022-10-30T01:10:11.439Z,8.45
2022-10-30T01:12:39.205Z,8.38
2022-10-30T01:15:07.251Z,7.93
2022-10-30T01:18:13.367Z,7.18
2022-10-30T01:21:13.151Z,9.88
2022-10-30T01:24:07.681Z,6.07
2022-10-30T01:26:43.896Z,7.60
2022-10-30T01:29:32.530Z,7.10
2022-10-30T01:32:11.804Z,7.82
2022-10-30T01:34:59.661Z,6.53
2022-10-30T01:38:03.414Z,9.30
2022-10-30T01:40:30.129Z,12.55
2022-10-30T01:42:58.423Z,9.18
2022-10-30T01:46:03.739Z,7.68
2022-10-30T01:49:01.315Z,6.22
2022-10-30T01:51:27.994Z,7.50
2022-10-30T01:54:23.481Z,6.10
2022-10-30T01:56:57.353Z,10.85
2022-10-30T01:59:27.535Z,6.20
2022-10-30T02:04:23.994Z,10.40
2022-10-30T02:06:52.455Z,9.38
2022-10-30T02:09:20.553Z,11.10
2022-10-30T02:11:51.498Z,9.00
2022-10-30T02:14:23.464Z,6.28
2022-10-30T02:16:53.069Z,12.82
2022-10-30T02:19:20.504Z,8.85
2022-10-30T02:21:47.834Z,9.07
2022-10-30T02:24:14.552Z,11.90
2022-10-30T02:26:41.276Z,8.43
2022-10-30T02:29:08.341Z,10.38
2022-10-30T02:31:35.660Z,7.53
2022-10-30T02:34:02.349Z,6.15
2022-10-30T02:36:29.024Z,7.32
2022-10-30T02:38:55.975Z,8.73
2022-10-30T02:41:23.634Z,8.90
2022-10-30T02:43:56.389Z,7.30
2022-10-30T02:46:23.053Z,11.93
2022-10-30T02:48:49.905Z,9.80
2022-10-30T02:51:16.947Z,8.43
2022-10-30T02:53:43.894Z,8.20
2022-10-30T02:56:13.445Z,9.40
2022-10-30T02:58:42.180Z,10.07
2022-10-30T03:01:17.769Z,8.25
2022-10-30T03:03:45.136Z,9.50
2022-10-30T03:06:15.629Z,7.38
2022-10-30T03:08:43.872Z,8.38
2022-10-30T03:11:18.623Z,11.15
2022-10-30T03:13:47.672Z,8.55
2022-10-30T03:16:23.785Z,9.32
2022-10-30T03:18:51.904Z,11.57
2022-10-30T03:21:21.030Z,11.98
2022-10-30T03:23:47.731Z,6.47
2022-10-30T03:26:14.365Z,11.48
2022-10-30T03:28:49.427Z,6.85
2022-10-30T03:31:18.471Z,9.70
2022-10-30T03:33:46.771Z,8.90
2022-10-30T03:36:14.532Z,7.88
2022-10-30T03:38:41.579Z,9.65
2022-10-30T03:41:09.280Z,10.40
2022-10-30T03:43:35.976Z,14.77
2022-10-30T03:46:03.631Z,10.27
2022-10-30T03:48:30.852Z,6.63
2022-10-30T03:50:59.905Z,11.73
2022-10-30T03:53:28.605Z,9.82
2022-10-30T03:56:01.060Z,10.60
2022-10-30T03:58:35.495Z,14.38
2022-10-30T04:01:07.616Z,11.07
2022-10-30T04:03:38.443Z,13.15
2022-10-30T04:06:06.955Z,9.77
2022-10-30T04:08:33.980Z,9.50
2022-10-30T04:11:01.943Z,8.75
2022-10-30T04:13:28.784Z,10.70
2022-10-30T04:15:58.203Z,12.00
2022-10-30T04:18:26.361Z,10.88
2022-10-30T04:20:54.681Z,12.73
2022-10-30T04:23:22.499Z,14.93
2022-10-30T04:25:49.275Z,7.70
2022-10-30T04:28:17.364Z,9.50
2022-10-30T04:30:45.840Z,10.52
2022-10-30T04:33:14.633Z,11.25
2022-10-30T04:35:41.693Z,8.95
2022-10-30T04:38:20.228Z,9.80
2022-10-30T04:40:48.124Z,6.93
2022-10-30T04:43:15.589Z,9.27
2022-10-30T04:45:45.896Z,8.10
2022-10-30T04:48:18.131Z,12.63
2022-10-30T04:50:46.823Z,12.48
2022-10-30T04:53:21.301Z,13.90
2022-10-30T04:55:55.540Z,20.45
2022-10-30T04:58:22.612Z,13.75
2022-10-30T05:01:04.026Z,12.00
2022-10-30T05:03:31.454Z,15.43
2022-10-30T05:06:02.658Z,13.70
2022-10-30T05:08:29.646Z,11.55
2022-10-30T05:10:58.268Z,11.07
2022-10-30T05:13:24.994Z,11.18
2022-10-30T05:15:54.071Z,12.13
2022-10-30T05:18:21.029Z,11.25
2022-10-30T05:20:47.993Z,14.07
2022-10-30T05:23:14.618Z,12.05
2022-10-30T05:25:41.796Z,11.48
2022-10-30T05:28:11.289Z,9.60
2022-10-30T05:30:44.902Z,12.23
2022-10-30T05:33:24.148Z,12.30
2022-10-30T05:35:50.867Z,12.85
2022-10-30T05:38:17.665Z,13.00
2022-10-30T05:40:47.021Z,10.15
2022-10-30T05:43:13.682Z,9.20
2022-10-30T05:45:40.400Z,9.48
2022-10-30T05:48:07.955Z,11.18
2022-10-30T05:50:41.983Z,9.88
2022-10-30T05:53:18.740Z,10.20
2022-10-30T05:55:45.528Z,7.20
2022-10-30T05:58:18.734Z,12.02
2022-10-30T06:00:46.413Z,10.68
2022-10-30T06:05:47.040Z,8.18
2022-10-30T06:08:17.878Z,12.65
2022-10-30T06:10:46.310Z,6.65
2022-10-30T06:13:15.906Z,9.73
2022-10-30T06:16:01.923Z,8.57
2022-10-30T06:18:46.067Z,11.23
2022-10-30T06:21:13.362Z,7.78
2022-10-30T06:23:51.166Z,7.47
2022-10-30T06:26:37.943Z,8.25
2022-10-30T06:29:09.265Z,8.70
2022-10-30T06:31:36.080Z,6.95
2022-10-30T06:34:03.621Z,7.63
2022-10-30T06:36:32.728Z,8.88
2022-10-30T06:38:59.600Z,7.90
2022-10-30T06:41:33.886Z,11.73
2022-10-30T06:44:28.547Z,10.55
2022-10-30T06:46:55.251Z,12.38
2022-10-30T06:49:22.288Z,11.10
2022-10-30T06:51:50.923Z,13.75
2022-10-30T06:54:17.618Z,8.48
2022-10-30T06:57:14.507Z,14.20
2022-10-30T07:00:19.648Z,13.55
2022-10-30T07:03:11.435Z,9.15
2022-10-30T07:05:39.140Z,12.35
2022-10-30T07:08:05.842Z,9.32
2022-10-30T07:10:32.990Z,8.27
2022-10-30T07:13:18.211Z,11.07
2022-10-30T07:16:14.368Z,9.93
2022-10-30T07:18:44.760Z,8.15
2022-10-30T07:21:11.443Z,12.52
2022-10-30T07:23:38.393Z,13.90
2022-10-30T07:26:23.537Z,8.55
2022-10-30T07:28:52.283Z,10.75
2022-10-30T07:31:34.759Z,19.85
2022-10-30T07:34:26.189Z,9.30
2022-10-30T07:37:11.508Z,8.95
2022-10-30T07:40:01.250Z,9.23
2022-10-30T07:42:46.757Z,6.80
2022-10-30T07:45:36.699Z,10.77
2022-10-30T07:48:23.399Z,8.63
2022-10-30T07:51:02.238Z,9.10
2022-10-30T07:53:29.977Z,7.38
2022-10-30T07:55:58.047Z,9.98
2022-10-30T07:58:45.711Z,6.43
2022-10-30T08:01:35.468Z,6.85
2022-10-30T08:04:17.940Z,9.23
2022-10-30T08:06:44.638Z,10.20
2022-10-30T08:09:11.883Z,8.40
2022-10-30T08:11:39.515Z,10.15
2022-10-30T08:14:06.824Z,6.63
2022-10-30T08:16:33.443Z,6.97
2022-10-30T08:19:00.458Z,9.52
2022-10-30T08:21:27.662Z,9.18
2022-10-30T08:23:58.477Z,6.75
2022-10-30T08:26:28.112Z,11.00
2022-10-30T08:28:54.835Z,7.72
2022-10-30T08:31:23.012Z,9.00
2022-10-30T08:34:12.737Z,7.78
2022-10-30T08:37:07.923Z,6.75
2022-10-30T08:39:35.220Z,7.03
2022-10-30T08:42:28.034Z,7.03
2022-10-30T08:44:58.250Z,5.40
2022-10-30T08:47:36.994Z,7.32
2022-10-30T08:50:03.930Z,7.70
2022-10-30T08:52:32.111Z,6.43
2022-10-30T08:54:58.817Z,9.73
2022-10-30T08:57:27.653Z,8.48
2022-10-30T08:59:56.541Z,7.43
2022-10-30T09:02:46.326Z,6.30
2022-10-30T09:05:37.396Z,9.73
2022-10-30T09:08:29.776Z,8.80
2022-10-30T09:11:07.589Z,8.18
2022-10-30T09:13:34.423Z,9.82
2022-10-30T09:16:03.363Z,7.88
2022-10-30T09:18:32.906Z,7.28
2022-10-30T09:21:03.201Z,9.57
2022-10-30T09:23:35.188Z,7.50
2022-10-30T09:26:29.429Z,7.90
2022-10-30T09:31:54.758Z,6.65
2022-10-30T09:34:23.952Z,8.27
2022-10-30T09:36:57.626Z,7.47
2022-10-30T09:39:25.537Z,9.40
2022-10-30T09:42:11.156Z,8.80
2022-10-30T09:45:23.075Z,10.55
2022-10-30T09:48:03.583Z,8.25
2022-10-30T09:50:54.761Z,8.07
2022-10-30T09:53:30.567Z,4.10
2022-10-30T09:56:12.448Z,6.90
2022-10-30T09:58:45.414Z,5.93
2022-10-30T10:01:27.413Z,6.60
2022-10-30T10:04:27.653Z,7.60
2022-10-30T10:07:24.000Z,8.65
2022-10-30T10:10:19.680Z,8.25
2022-10-30T10:13:03.794Z,5.07
2022-10-30T10:15:51.809Z,7.60
2022-10-30T10:18:24.996Z,8.75
2022-10-30T10:20:55.924Z,6.57
2022-10-30T10:23:50.759Z,5.80
2022-10-30T10:26:28.949Z,8.77
2022-10-30T10:29:09.460Z,7.70
2022-10-30T10:31:48.302Z,8.95
2022-10-30T10:34:35.120Z,9.65
2022-10-30T10:37:23.609Z,10.77
2022-10-30T10:40:09.062Z,8.27
2022-10-30T10:43:08.685Z,7.70
2022-10-30T10:46:10.686Z,9.15
2022-10-30T10:51:22.303Z,11.55
2022-10-30T10:53:57.307Z,9.88
2022-10-30T10:56:31.898Z,7.38
2022-10-30T10:59:03.477Z,10.50
2022-10-30T11:01:42.898Z,5.18
2022-10-30T11:04:19.093Z,8.35
2022-10-30T11:06:51.951Z,6.93
2022-10-30T11:09:21.579Z,6.30
2022-10-30T11:11:53.326Z,8.45
2022-10-30T11:14:23.899Z,7.75
2022-10-30T11:16:50.470Z,6.90
2022-10-30T11:19:17.198Z,7.60
2022-10-30T11:21:51.625Z,8.30
2022-10-30T11:24:30.590Z,5.25
2022-10-30T11:26:59.991Z,5.70
2022-10-30T11:29:30.014Z,6.28
2022-10-30T11:32:05.058Z,7.82
2022-10-30T11:34:38.790Z,6.07
2022-10-30T11:37:05.565Z,8.32
2022-10-30T11:39:35.704Z,9.13
2022-10-30T11:42:02.355Z,7.75
2022-10-30T11:44:37.095Z,7.10
2022-10-30T11:47:05.060Z,9.15
2022-10-30T11:49:38.183Z,6.93
2022-10-30T11:52:06.956Z,11.30
2022-10-30T11:54:39.083Z,6.65
2022-10-30T11:57:23.205Z,8.57
2022-10-30T11:59:53.695Z,7.75
2022-10-30T12:02:28.196Z,10.15
2022-10-30T12:05:02.046Z,6.45
2022-10-30T12:07:34.805Z,9.48
2022-10-30T12:10:03.144Z,5.93
2022-10-30T12:12:36.286Z,6.80
2022-10-30T12:15:11.063Z,7.70
2022-10-30T12:17:38.750Z,8.65
2022-10-30T12:20:06.528Z,10.70
2022-10-30T12:22:34.969Z,7.22
2022-10-30T12:25:15.577Z,7.25
2022-10-30T12:27:42.379Z,9.25
2022-10-30T12:30:17.564Z,13.00
2022-10-30T12:32:50.362Z,7.28
2022-10-30T12:35:23.167Z,11.93
2022-10-30T12:37:54.142Z,5.95
2022-10-30T12:40:28.279Z,6.97
2022-10-30T12:43:11.398Z,6.30
2022-10-30T12:45:43.510Z,7.05
2022-10-30T12:48:13.131Z,6.95
2022-10-30T12:51:02.509Z,6.70
2022-10-30T12:54:16.637Z,6.43
2022-10-30T12:56:48.112Z,6.68
2022-10-30T12:59:38.935Z,10.18
2022-10-30T13:02:33.003Z,8.57
2022-10-30T13:05:14.238Z,12.23
2022-10-30T13:07:47.800Z,13.00
2022-10-30T13:10:44.437Z,7.82
2022-10-30T13:13:18.674Z,6.47
2022-10-30T13:15:58.247Z,5.93
2022-10-30T13:18:32.558Z,9.07
2022-10-30T13:21:18.059Z,7.60
2022-10-30T13:23:53.053Z,9.32
2022-10-30T13:26:38.535Z,5.90
2022-10-30T13:29:29.344Z,6.65
2022-10-30T13:32:05.017Z,7.20
2022-10-30T13:34:40.873Z,6.57
2022-10-30T13:37:35.248Z,6.97
2022-10-30T13:40:17.435Z,11.90
2022-10-30T13:43:15.764Z,10.23
2022-10-30T13:45:54.752Z,13.27
2022-10-30T13:48:33.502Z,10.30
2022-10-30T13:51:19.004Z,7.32
2022-10-30T13:53:49.861Z,5.35
2022-10-30T13:56:19.265Z,6.80
2022-10-30T13:59:15.924Z,30.13
2022-10-30T14:02:15.105Z,11.40
2022-10-30T14:04:53.868Z,8.00
2022-10-30T14:07:42.921Z,7.13
2022-10-30T14:10:16.066Z,6.78
2022-10-30T14:12:52.289Z,6.15
2022-10-30T14:15:31.065Z,6.32
2022-10-30T14:18:13.153Z,8.65
2022-10-30T14:20:49.346Z,6.95
2022-10-30T14:23:38.285Z,4.47
2022-10-30T14:26:11.027Z,6.30
2022-10-30T14:28:40.737Z,5.60
2022-10-30T14:31:13.634Z,7.18
2022-10-30T14:33:40.219Z,6.70
2022-10-30T14:36:15.099Z,8.52
2022-10-30T14:38:42.339Z,8.13
2022-10-30T14:41:24.442Z,10.25
2022-10-30T14:44:21.577Z,9.00
2022-10-30T14:47:06.715Z,5.82
2022-10-30T14:49:49.925Z,5.63
2022-10-30T14:52:58.225Z,5.97
2022-10-30T14:55:33.790Z,7.82
2022-10-30T14:58:03.460Z,8.35
2022-10-30T15:00:37.980Z,7.82
2022-10-30T15:03:11.546Z,9.13
2022-10-30T15:05:47.302Z,5.22
2022-10-30T15:08:56.887Z,5.13
2022-10-30T15:11:50.069Z,7.25
2022-10-30T15:14:40.483Z,8.00
2022-10-30T15:17:36.982Z,8.77
2022-10-30T15:20:14.096Z,9.45
2022-10-30T15:22:41.487Z,4.93
2022-10-30T15:25:23.221Z,7.95
2022-10-30T15:27:57.207Z,11.48
2022-10-30T15:30:26.620Z,6.20
2022-10-30T15:32:53.862Z,9.23
2022-10-30T15:35:23.387Z,9.88
2022-10-30T15:38:00.254Z,14.10
2022-10-30T15:40:28.553Z,11.93
2022-10-30T15:42:56.533Z,10.35
2022-10-30T15:45:33.878Z,7.53
2022-10-30T15:48:04.338Z,9.93
2022-10-30T15:50:32.571Z,10.60
2022-10-30T15:52:59.902Z,8.30
2022-10-30T15:55:32.479Z,8.95
2022-10-30T15:58:04.769Z,8.38
2022-10-30T16:00:40.234Z,6.72
2022-10-30T16:03:10.792Z,7.53
2022-10-30T16:05:37.597Z,8.13
2022-10-30T16:08:14.300Z,9.07
2022-10-30T16:10:43.393Z,9.07
2022-10-30T16:13:18.918Z,9.38
2022-10-30T16:15:47.586Z,9.85
2022-10-30T16:18:21.305Z,5.95
2022-10-30T16:20:54.950Z,10.10
2022-10-30T16:23:22.664Z,8.30
2022-10-30T16:25:55.552Z,11.93
2022-10-30T16:28:29.525Z,9.68
2022-10-30T16:31:05.823Z,8.63
2022-10-30T16:33:35.462Z,10.60
2022-10-30T16:36:07.200Z,9.20
2022-10-30T16:38:39.148Z,9.27
2022-10-30T16:43:35.548Z,14.27
2022-10-30T16:46:14.329Z,12.65
2022-10-30T16:48:48.472Z,39.22
2022-10-30T16:51:17.886Z,40.67
2022-10-30T16:53:48.835Z,41.35
2022-10-30T16:56:28.014Z,28.58
2022-10-30T16:59:05.356Z,24.10
2022-10-30T17:01:32.709Z,21.70
2022-10-30T17:04:00.455Z,22.38
2022-10-30T17:06:36.165Z,15.95
2022-10-30T17:09:08.584Z,16.23
2022-10-30T17:11:37.468Z,13.00
2022-10-30T17:14:15.989Z,15.30
2022-10-30T17:16:52.406Z,12.07
2022-10-30T17:19:31.192Z,10.55
2022-10-30T17:22:04.701Z,11.00
2022-10-30T17:24:35.090Z,11.32
2022-10-30T17:27:04.141Z,10.13
2022-10-30T17:29:44.797Z,10.63
2022-10-30T17:32:20.489Z,17.48
2022-10-30T17:34:48.019Z,12.82
2022-10-30T17:37:14.761Z,16.17
2022-10-30T17:39:41.464Z,12.57
2022-10-30T17:42:10.160Z,10.63
2022-10-30T17:44:37.159Z,13.77
2022-10-30T17:47:16.849Z,12.07
2022-10-30T17:49:44.035Z,11.95
2022-10-30T17:52:15.187Z,13.07
2022-10-30T17:54:42.880Z,12.27
2022-10-30T17:57:11.725Z,11.38
2022-10-30T17:59:39.369Z,12.10
2022-10-30T18:02:17.376Z,10.50
2022-10-30T18:04:44.796Z,12.05
2022-10-30T18:07:12.597Z,10.52
2022-10-30T18:09:39.632Z,10.20
2022-10-30T18:12:08.285Z,10.48
2022-10-30T18:14:34.974Z,13.77
2022-10-30T18:17:01.790Z,9.48
2022-10-30T18:19:28.483Z,9.15
2022-10-30T18:21:55.195Z,12.13
2022-10-30T18:24:22.263Z,9.10
2022-10-30T18:26:48.882Z,11.75
2022-10-30T18:29:15.590Z,12.40
2022-10-30T18:31:42.274Z,11.60
2022-10-30T18:34:18.304Z,11.50
2022-10-30T18:36:45.197Z,14.98
2022-10-30T18:39:13.096Z,12.55
2022-10-30T18:41:45.026Z,10.95
2022-10-30T18:44:18.511Z,18.05
2022-10-30T18:46:45.966Z,27.27
2022-10-30T18:49:12.770Z,30.48
2022-10-30T18:51:39.686Z,38.60
2022-10-30T18:54:16.214Z,34.13
2022-10-30T18:56:42.904Z,15.77
2022-10-30T18:59:09.656Z,13.80
2022-10-30T19:01:36.599Z,19.77
2022-10-30T19:04:04.557Z,14.55
2022-10-30T19:06:34.326Z,18.25
2022-10-30T19:09:01.327Z,12.52
2022-10-30T19:11:30.815Z,13.30
2022-10-30T19:13:57.956Z,17.92
2022-10-30T19:16:25.546Z,10.32
2022-10-30T19:18:52.753Z,10.88
2022-10-30T19:21:21.877Z,12.35
2022-10-30T19:23:49.078Z,11.73
2022-10-30T19:26:17.359Z,12.82
2022-10-30T19:28:45.112Z,15.25
2022-10-30T19:31:17.164Z,17.65
2022-10-30T19:36:29.437Z,16.95
2022-10-30T19:38:56.673Z,14.50
2022-10-30T19:41:24.800Z,12.18
2022-10-30T19:43:52.788Z,10.38
2022-10-30T19:46:19.755Z,12.77
2022-10-30T19:49:01.847Z,10.75
2022-10-30T19:51:28.961Z,12.95
2022-10-30T19:53:55.987Z,11.70
2022-10-30T19:56:23.497Z,12.18
2022-10-30T19:58:50.380Z,10.13
2022-10-30T20:01:17.354Z,10.80
2022-10-30T20:03:44.289Z,12.55
2022-10-30T20:06:12.556Z,9.25
2022-10-30T20:08:39.738Z,14.85
2022-10-30T20:11:06.396Z,10.38
2022-10-30T20:13:33.550Z,9.13
2022-10-30T20:16:02.523Z,7.63
2022-10-30T20:18:31.675Z,11.27
2022-10-30T20:21:00.278Z,8.55
2022-10-30T20:23:27.852Z,9.63
2022-10-30T20:26:01.083Z,11.40
2022-10-30T20:28:31.619Z,8.70
2022-10-30T20:30:58.829Z,11.65
2022-10-30T20:33:26.054Z,9.32
2022-10-30T20:35:54.706Z,11.30
2022-10-30T20:38:26.697Z,11.30
2022-10-30T20:40:53.861Z,11.55
2022-10-30T20:43:24.989Z,12.13
2022-10-30T20:45:51.676Z,14.43
2022-10-30T20:48:18.336Z,11.80
2022-10-30T20:50:50.301Z,12.65
2022-10-30T20:53:17.401Z,16.73
2022-10-30T20:55:45.318Z,14.88
2022-10-30T20:58:12.435Z,11.20
2022-10-30T21:00:39.926Z,15.68
2022-10-30T21:03:07.437Z,11.65
2022-10-30T21:05:45.082Z,15.43
2022-10-30T21:08:13.916Z,13.00
2022-10-30T21:10:41.525Z,13.40
2022-10-30T21:13:09.866Z,15.05
2022-10-30T21:15:44.647Z,11.30
2022-10-30T21:18:13.117Z,11.52
2022-10-30T21:20:41.116Z,11.60
2022-10-30T21:23:08.517Z,8.32
2022-10-30T21:25:35.875Z,11.18
2022-10-30T21:28:03.074Z,12.68
2022-10-30T21:30:30.160Z,10.95
2022-10-30T21:32:58.876Z,7.68
2022-10-30T21:35:26.039Z,11.27
2022-10-30T21:37:52.673Z,12.40
2022-10-30T21:40:19.333Z,13.82
2022-10-30T21:42:49.164Z,10.18
2022-10-30T21:45:16.202Z,14.10
2022-10-30T21:47:42.879Z,10.32
2022-10-30T21:50:12.170Z,13.77
2022-10-30T21:52:40.160Z,14.50
2022-10-30T21:55:07.372Z,10.07
2022-10-30T21:57:34.241Z,11.00
2022-10-30T22:00:05.454Z,17.05
2022-10-30T22:02:34.730Z,16.35
2022-10-30T22:05:01.475Z,12.25
2022-10-30T22:07:28.263Z,9.32
2022-10-30T22:09:54.912Z,13.63
2022-10-30T22:12:21.560Z,9.73
2022-10-30T22:14:48.209Z,12.13
2022-10-30T22:17:14.864Z,10.77
2022-10-30T22:19:41.540Z,11.02
2022-10-30T22:22:09.166Z,7.63
2022-10-30T22:24:35.927Z,7.45
2022-10-30T22:27:02.671Z,13.90
2022-10-30T22:29:29.346Z,10.90
2022-10-30T22:31:56.044Z,9.73
2022-10-30T22:34:22.708Z,11.90
2022-10-30T22:36:49.332Z,9.70
2022-10-30T22:39:15.980Z,7.85
2022-10-30T22:41:42.725Z,13.07
2022-10-30T22:44:14.300Z,14.90
2022-10-30T22:46:41.028Z,11.85
2022-10-30T22:49:07.978Z,11.43
2022-10-30T22:51:37.005Z,8.88
2022-10-30T22:54:05.221Z,13.77
2022-10-30T22:56:34.247Z,12.70
2022-10-30T22:59:03.297Z,9.45
2022-10-30T23:01:31.920Z,14.77
2022-10-30T23:04:01.410Z,10.88
2022-10-30T23:06:29.957Z,12.50
2022-10-30T23:08:59.154Z,10.15
2022-10-30T23:11:26.470Z,8.88
2022-10-30T23:13:53.506Z,15.77
2022-10-30T23:16:22.780Z,8.88
2022-10-30T23:18:50.904Z,9.77
2022-10-30T23:21:20.424Z,8.05
2022-10-30T23:23:47.699Z,10.48
2022-10-30T23:26:17.236Z,8.75
2022-10-30T23:28:45.148Z,10.18
2022-10-30T23:31:25.226Z,9.18
2022-10-30T23:33:54.168Z,10.50
2022-10-30T23:36:21.336Z,7.85
2022-10-30T23:38:55.361Z,9.02
2022-10-30T23:41:23.182Z,9.48
2022-10-30T23:43:54.395Z,11.82
2022-10-30T23:46:21.201Z,8.47
2022-10-30T23:48:47.843Z,8.43
2022-10-30T23:51:14.525Z,11.50
2022-10-30T23:53:41.232Z,6.97
2022-10-30T23:56:08.064Z,7.50
2022-10-30T23:58:35.147Z,9.43
